Time;durP1;ratioP1;P1;durP2;ratioP2;P2;SDS_P1;SDS_P2;PMS_P1;PMS_P2;Temp;Humidity;BMP_temperature;BMP_pressure;BME280_temperature;BME280_humidity;BME280_pressure;Samples;Min_cycle;Max_cycle;Signal;HPM_P1;HPM_P2
2022/01/09 00:01:47;;;;;;;5.80;4.32;;;;;;;3.21;100.00;62332.41;4870041;29;20203;-75
2022/01/09 00:13:14;;;;;;;5.47;3.30;;;;;;;3.11;100.00;62319.09;4278301;26;20274;-76
2022/01/09 00:16:13;;;;;;;4.60;3.25;;;;;;;3.20;100.00;62328.38;4959327;28;20271;-76
2022/01/09 00:22:19;;;;;;;6.53;5.00;;;;;;;3.25;100.00;62336.53;4960097;28;20276;-75
2022/01/09 00:28:27;;;;;;;;;;;;;;;;;;;;;
2022/01/09 00:31:42;;;;;;;8.30;4.65;;;;;;;3.36;100.00;62347.34;4980611;28;20536;-75
2022/01/09 00:35:07;;;;;;;7.68;4.82;;;;;;;3.35;100.00;62346.81;4978557;28;20300;-75
2022/01/09 00:44:52;;;;;;;9.77;5.97;;;;;;;3.59;100.00;62365.44;4986838;28;20234;-75
2022/01/09 00:48:12;;;;;;;7.70;5.53;;;;;;;3.63;100.00;62372.56;4975228;28;20223;-76
2022/01/09 00:51:15;;;;;;;6.97;5.32;;;;;;;3.71;100.00;62383.31;4906022;29;20229;-75
2022/01/09 00:57:35;;;;;;;5.22;4.68;;;;;;;3.44;100.00;62356.06;4995293;28;20225;-75
2022/01/09 01:03:51;;;;;;;6.13;4.30;;;;;;;3.60;100.00;62372.00;4866614;29;20205;-74
2022/01/09 01:07:09;;;;;;;6.43;4.45;;;;;;;3.57;100.00;62366.41;4994555;28;20214;-75
2022/01/09 01:10:17;;;;;;;5.22;4.50;;;;;;;3.42;100.00;62356.00;4924599;29;20226;-74
2022/01/09 01:16:42;;;;;;;6.45;4.15;;;;;;;3.47;100.00;62356.13;4951908;28;20319;-74
2022/01/09 01:19:52;;;;;;;5.72;4.00;;;;;;;3.41;100.00;62349.97;5007676;28;20532;-75
2022/01/09 01:32:15;;;;;;;4.03;3.20;;;;;;;2.83;100.00;62288.34;4973336;28;20246;-75
2022/01/09 01:35:28;;;;;;;5.80;3.58;;;;;;;2.74;100.00;62281.63;5002077;28;20246;-75
2022/01/09 01:38:38;;;;;;;;;;;;;;;;;;;;;
2022/01/09 01:41:37;;;;;;;3.63;3.33;;;;;;;2.82;100.00;62287.31;5003722;28;20231;-75
2022/01/09 01:44:41;;;;;;;3.58;3.25;;;;;;;2.87;100.00;62294.97;5019764;23;20230;-76
2022/01/09 01:48:05;;;;;;;;;;;;;;;;;;;;;
2022/01/09 01:51:13;;;;;;;5.72;3.88;;;;;;;2.84;100.00;62289.38;5030497;23;20295;-76
2022/01/09 01:54:34;;;;;;;3.40;3.08;;;;;;;2.61;100.00;62267.72;5000842;28;20242;-75
2022/01/09 01:57:56;;;;;;;4.05;3.22;;;;;;;2.75;100.00;62280.13;4961717;28;20432;-75
2022/01/09 02:01:06;;;;;;;3.75;3.45;;;;;;;2.89;100.00;62296.50;5022816;28;20222;-76
2022/01/09 02:04:15;;;;;;;3.38;3.08;;;;;;;2.95;100.00;62303.19;5021542;28;20215;-76
2022/01/09 02:17:21;;;;;;;4.05;2.97;;;;;;;3.26;100.00;62334.53;4896040;29;20246;-76
2022/01/09 02:20:31;;;;;;;6.03;4.40;;;;;;;3.12;100.00;62322.66;4922992;29;20229;-76
2022/01/09 02:30:35;;;;;;;4.53;3.22;;;;;;;3.10;100.00;62323.63;4945650;29;20231;-76
2022/01/09 02:41:03;;;;;;;5.13;3.20;;;;;;;3.02;100.00;62312.88;4951231;29;20224;-74
2022/01/09 02:44:18;;;;;;;3.25;2.95;;;;;;;3.15;100.00;62328.25;4998030;28;20230;-75
2022/01/09 02:47:09;;;;;;;2.72;2.53;;;;;;;3.17;100.00;62328.31;5027613;28;20230;-74
2022/01/09 02:50:09;;;;;;;3.05;2.85;;;;;;;3.21;100.00;62329.91;4984259;28;20227;-75
2022/01/09 02:56:49;;;;;;;3.28;2.92;;;;;;;3.13;100.00;62324.19;5001195;28;20210;-75
2022/01/09 03:02:57;;;;;;;3.03;2.83;;;;;;;3.18;100.00;62329.34;4936231;29;20197;-76
2022/01/09 03:12:59;;;;;;;3.03;2.72;;;;;;;3.25;100.00;62334.03;4948076;29;20279;-75
2022/01/09 03:16:10;;;;;;;2.90;2.70;;;;;;;2.99;100.00;62306.78;4949343;29;20216;-76
2022/01/09 03:19:20;;;;;;;2.67;2.47;;;;;;;3.09;100.00;62317.06;4986034;28;20256;-75
2022/01/09 03:22:13;;;;;;;3.03;2.47;;;;;;;3.17;100.00;62323.28;5028974;28;20216;-76
2022/01/09 03:25:20;;;;;;;5.80;3.47;;;;;;;3.20;100.00;62331.41;5045894;28;20213;-76
2022/01/09 03:35:35;;;;;;;3.33;3.10;;;;;;;3.45;100.00;62357.09;4135059;27;27661182;-76
2022/01/09 03:51:47;;;;;;;3.20;2.90;;;;;;;3.55;100.00;62364.84;5028374;28;20220;-75
2022/01/09 04:01:41;;;;;;;3.47;3.22;;;;;;;3.72;100.00;62381.84;4943529;29;20225;-76
2022/01/09 04:05:07;;;;;;;5.32;3.45;;;;;;;3.78;100.00;62390.00;4885882;29;20231;-75
2022/01/09 04:08:39;;;;;;;;;;;;;;;;;;;;;
2022/01/09 04:18:00;;;;;;;4.22;3.38;;;;;;;3.92;100.00;62399.38;5056752;28;20338;-76
2022/01/09 04:24:10;;;;;;;3.05;2.75;;;;;;;3.96;100.00;62409.03;5034906;28;20232;-76
2022/01/09 04:27:11;;;;;;;3.25;2.83;;;;;;;4.00;100.00;62410.13;5073564;28;20270;-76
2022/01/09 04:30:30;;;;;;;3.45;3.15;;;;;;;4.12;100.00;62428.03;5100399;28;20223;-76
2022/01/09 04:33:43;;;;;;;3.25;2.90;;;;;;;4.14;100.00;62422.50;5087845;28;20246;-76
2022/01/09 04:40:26;;;;;;;3.45;3.15;;;;;;;4.06;100.00;62419.31;5094002;28;20358;-76
2022/01/09 04:46:21;;;;;;;;;;;;;;;;;;;;;
2022/01/09 04:52:52;;;;;;;3.15;2.85;;;;;;;4.11;100.00;62426.47;5001754;28;20203;-75
2022/01/09 04:55:56;;;;;;;3.40;3.10;;;;;;;4.17;100.00;62423.09;5000553;28;20237;-75
2022/01/09 05:02:12;;;;;;;3.95;3.05;;;;;;;3.83;100.00;62392.63;5033994;28;20239;-75
2022/01/09 05:05:27;;;;;;;;;;;;;;;;;;;;;
2022/01/09 05:12:18;;;;;;;4.93;3.85;;;;;;;3.56;100.00;62367.91;5015735;28;20227;-75
2022/01/09 05:15:29;;;;;;;8.30;4.65;;;;;;;3.72;100.00;62378.81;5033232;28;20298;-76
2022/01/09 05:18:13;;;;;;;7.50;4.93;;;;;;;3.74;100.00;62381.38;5077305;28;20212;-74
2022/01/09 05:34:31;;;;;;;6.43;4.32;;;;;;;3.37;100.00;62346.34;5014719;28;20218;-74
2022/01/09 05:37:58;;;;;;;6.35;5.55;;;;;;;3.49;100.00;62358.69;5023761;28;20199;-75
2022/01/09 05:40:56;;;;;;;8.50;6.05;;;;;;;3.53;100.00;62362.28;5023094;28;20261;-76
2022/01/09 05:49:56;;;;;;;5.63;4.97;;;;;;;3.33;100.00;62342.25;5065023;28;20219;-76
2022/01/09 05:56:37;;;;;;;6.53;4.85;;;;;;;3.40;100.00;62348.91;5091098;28;20295;-76
2022/01/09 06:09:24;;;;;;;11.23;6.43;;;;;;;3.85;100.00;62397.22;4991866;28;20233;-76
2022/01/09 06:12:50;;;;;;;15.13;6.95;;;;;;;4.01;100.00;62408.63;5097858;28;20313;-76
2022/01/09 06:16:09;;;;;;;10.35;6.05;;;;;;;4.11;100.00;62421.94;4990792;28;20277;-75
2022/01/09 06:32:24;;;;;;;5.80;4.70;;;;;;;4.41;100.00;62457.88;4992297;28;20247;-75
2022/01/09 06:39:31;;;;;;;5.85;4.90;;;;;;;4.46;100.00;62457.97;4863331;29;20471;-76
2022/01/09 06:46:14;;;;;;;20.60;11.23;;;;;;;4.25;100.00;62441.41;5143025;27;20290;-75
2022/01/09 06:52:40;;;;;;;8.60;5.50;;;;;;;4.13;100.00;62424.00;5141965;27;20194;-77
2022/01/09 06:55:40;;;;;;;6.75;5.28;;;;;;;4.19;100.00;62430.19;5144303;27;20281;-75
2022/01/09 06:59:04;;;;;;;9.43;5.55;;;;;;;4.24;100.00;62434.81;5061670;28;20223;-76
2022/01/09 07:02:26;;;;;;;66.95;34.63;;;;;;;4.22;100.00;62433.28;5031147;28;20399;-76
2022/01/09 07:05:07;;;;;;;9.95;5.55;;;;;;;3.71;100.00;62385.34;5115189;27;20237;-77
2022/01/09 07:24:26;;;;;;;9.98;7.05;;;;;;;4.21;100.00;62434.25;4985656;28;20234;-76
2022/01/09 07:33:21;;;;;;;12.27;8.95;;;;;;;4.63;100.00;62475.47;4980571;28;20215;-77
2022/01/09 07:36:41;;;;;;;20.67;11.40;;;;;;;4.71;100.00;62483.69;5002839;28;20270;-75
2022/01/09 07:39:58;;;;;;;15.45;9.32;;;;;;;4.80;100.00;62494.47;4992434;28;20254;-75
2022/01/09 07:42:53;;;;;;;21.08;12.55;;;;;;;4.91;100.00;62500.72;5007728;28;20295;-75
2022/01/09 07:49:18;;;;;;;11.77;7.82;;;;;;;4.99;100.00;62511.50;5045043;28;20224;-76
2022/01/09 07:52:50;;;;;;;10.18;6.10;;;;;;;5.24;100.00;62539.75;5041990;28;20273;-75
2022/01/09 07:56:12;;;;;;;12.30;8.65;;;;;;;5.45;100.00;62561.41;5069576;28;20258;-75
2022/01/09 08:08:48;;;;;;;11.38;7.72;;;;;;;5.55;100.00;62569.69;5073813;28;20217;-76
2022/01/09 08:12:01;;;;;;;9.65;7.35;;;;;;;6.10;100.00;62627.88;5073057;28;20535;-74
2022/01/09 08:14:53;;;;;;;11.00;7.82;;;;;;;5.97;100.00;62615.00;5030639;28;20303;-75
2022/01/09 08:24:49;;;;;;;13.90;8.60;;;;;;;5.95;100.00;62614.94;4993209;28;20292;-76
2022/01/09 08:28:13;;;;;;;14.10;8.70;;;;;;;5.55;100.00;62569.19;4993281;28;20242;-75
2022/01/09 08:30:42;;;;;;;9.43;6.20;;;;;;;5.61;100.00;62575.34;5073759;28;20251;-74
2022/01/09 08:33:09;;;;;;;8.38;6.88;;;;;;;5.83;100.00;62600.59;5089082;28;20235;-75
2022/01/09 08:35:35;;;;;;;9.60;6.88;;;;;;;5.75;100.00;62590.31;5086816;28;20201;-75
2022/01/09 08:38:03;;;;;;;8.85;6.97;;;;;;;5.88;100.00;62603.19;5088348;28;20193;-74
2022/01/09 08:40:31;;;;;;;8.85;6.43;;;;;;;6.06;100.00;62621.25;5091099;28;20205;-74
2022/01/09 08:42:58;;;;;;;10.98;6.85;;;;;;;6.21;100.00;62636.69;5093382;28;20388;-75
2022/01/09 08:45:25;;;;;;;6.93;5.45;;;;;;;6.24;100.00;62639.78;5090511;28;20272;-76
2022/01/09 08:47:53;;;;;;;5.18;4.70;;;;;;;6.26;100.00;62644.38;5088740;28;20235;-75
2022/01/09 08:50:20;;;;;;;24.38;14.80;;;;;;;6.45;100.00;62658.91;5090498;28;20224;-76
2022/01/09 08:52:47;;;;;;;21.23;13.73;;;;;;;6.50;100.00;62664.59;5090219;28;20197;-75
2022/01/09 08:55:14;;;;;;;5.82;4.40;;;;;;;6.48;100.00;62667.06;5088803;28;20216;-74
2022/01/09 08:57:41;;;;;;;8.27;5.90;;;;;;;6.54;100.00;62675.78;5091101;28;20205;-75
2022/01/09 09:00:10;;;;;;;6.68;5.95;;;;;;;6.63;100.00;62680.00;5067952;28;20214;-75
2022/01/09 09:02:37;;;;;;;7.85;6.93;;;;;;;6.77;100.00;62694.44;5085605;28;20196;-75
2022/01/09 09:05:11;;;;;;;7.43;5.60;;;;;;;6.71;100.00;62686.22;5090215;28;20243;-76
2022/01/09 09:07:38;;;;;;;8.95;6.15;;;;;;;6.95;100.00;62713.50;5086869;28;20217;-75
2022/01/09 09:10:06;;;;;;;9.80;7.18;;;;;;;7.17;100.00;62735.72;5087331;28;20399;-76
2022/01/09 09:12:34;;;;;;;7.63;5.60;;;;;;;7.44;100.00;62761.03;5087709;28;20201;-76
2022/01/09 09:15:05;;;;;;;6.35;5.63;;;;;;;7.65;100.00;62782.19;5083767;28;20269;-75
2022/01/09 09:17:34;;;;;;;7.95;5.82;;;;;;;7.59;100.00;62778.53;5075929;28;20202;-77
2022/01/09 09:20:03;;;;;;;6.35;5.15;;;;;;;7.53;100.00;62775.38;5098990;28;20257;-75
2022/01/09 09:22:31;;;;;;;6.90;5.25;;;;;;;7.76;99.89;62799.13;5108420;28;20238;-76
2022/01/09 09:24:58;;;;;;;7.15;6.07;;;;;;;7.84;99.94;62807.38;5115886;28;20215;-75
2022/01/09 09:27:30;;;;;;;10.30;6.00;;;;;;;7.95;98.71;62816.22;5130899;28;20230;-75
2022/01/09 09:29:58;;;;;;;6.18;4.47;;;;;;;7.87;98.57;62809.97;5112130;28;20248;-74
2022/01/09 09:32:24;;;;;;;5.75;4.85;;;;;;;7.67;98.70;62784.78;5109906;28;20265;-76
2022/01/09 09:34:51;;;;;;;11.80;7.05;;;;;;;7.62;99.34;62781.63;5110390;28;20215;-76
2022/01/09 09:37:20;;;;;;;6.82;4.88;;;;;;;7.45;100.00;62761.56;5108656;28;20204;-77
2022/01/09 09:39:51;;;;;;;5.32;4.88;;;;;;;7.68;100.00;62787.84;5105369;28;20460;-76
2022/01/09 09:42:21;;;;;;;5.32;4.30;;;;;;;7.70;100.00;62790.41;5104078;28;20245;-77
2022/01/09 09:45:00;;;;;;;5.43;4.65;;;;;;;7.56;100.00;62775.44;5108985;28;20274;-79
2022/01/09 09:47:28;;;;;;;7.13;5.25;;;;;;;7.64;100.00;62783.69;5109811;28;20292;-76
2022/01/09 09:49:54;;;;;;;5.18;4.68;;;;;;;7.54;100.00;62773.38;5108299;28;20219;-75
2022/01/09 09:52:21;;;;;;;7.05;5.75;;;;;;;7.34;100.00;62755.25;5106406;28;20196;-76
2022/01/09 09:54:51;;;;;;;6.45;5.82;;;;;;;7.68;100.00;62790.38;5107268;28;20224;-76
2022/01/09 09:57:19;;;;;;;7.90;6.03;;;;;;;7.93;100.00;62811.09;5108251;28;20203;-76
2022/01/09 09:59:46;;;;;;;10.18;6.53;;;;;;;8.00;98.49;62823.91;5105088;28;20226;-76
2022/01/09 10:02:16;;;;;;;6.55;5.43;;;;;;;8.04;98.76;62830.06;5107185;28;20202;-75
2022/01/09 10:05:08;;;;;;;9.32;6.05;;;;;;;8.12;97.90;62838.31;5112562;28;20237;-75
2022/01/09 10:07:35;;;;;;;5.95;5.10;;;;;;;7.80;98.34;62798.19;5105087;28;20291;-75
2022/01/09 10:10:08;;;;;;;12.20;8.00;;;;;;;7.99;98.77;62820.34;5109513;28;20242;-77
2022/01/09 10:12:36;;;;;;;6.05;4.93;;;;;;;8.30;98.09;62853.88;5098988;28;20260;-75
2022/01/09 10:15:07;;;;;;;6.13;4.85;;;;;;;8.48;95.92;62875.53;5104230;28;20216;-76
2022/01/09 10:17:34;;;;;;;6.18;5.10;;;;;;;8.33;95.67;62856.97;5098763;28;20238;-76
2022/01/09 10:20:07;;;;;;;8.65;5.78;;;;;;;8.52;95.75;62871.53;5113207;28;20231;-75
2022/01/09 10:22:36;;;;;;;5.60;4.72;;;;;;;8.71;95.31;62891.16;5108248;28;20199;-75
2022/01/09 10:25:31;;;;;;;8.18;5.50;;;;;;;8.64;95.21;62887.00;5106750;28;20215;-75
2022/01/09 10:28:04;;;;;;;7.15;5.45;;;;;;;9.07;92.12;62931.44;5106836;28;20239;-75
2022/01/09 10:30:33;;;;;;;6.38;4.85;;;;;;;9.34;90.36;62961.34;5096708;28;20204;-77
2022/01/09 10:33:02;;;;;;;5.97;5.28;;;;;;;9.42;88.30;62972.19;5096500;28;20227;-75
2022/01/09 10:35:30;;;;;;;4.88;4.38;;;;;;;9.69;86.41;62991.94;5105239;28;20223;-76
2022/01/09 10:38:07;;;;;;;6.10;4.70;;;;;;;9.28;86.33;62952.63;5105642;28;20196;-76
2022/01/09 10:40:38;;;;;;;7.75;5.38;;;;;;;8.79;90.74;62905.03;5105992;28;20497;-77
2022/01/09 10:43:08;;;;;;;8.15;6.00;;;;;;;8.69;92.04;62894.69;5092182;28;20433;-75
2022/01/09 10:45:38;;;;;;;4.95;4.18;;;;;;;8.80;91.59;62905.53;5101053;28;20233;-76
2022/01/09 10:48:08;;;;;;;5.88;4.55;;;;;;;8.90;90.21;62916.41;5105385;28;20273;-76
2022/01/09 10:50:38;;;;;;;4.45;3.88;;;;;;;9.13;89.66;62934.56;5112550;28;20196;-76
2022/01/09 10:53:30;;;;;;;5.75;4.15;;;;;;;8.94;89.83;62917.97;5108851;28;20196;-75
2022/01/09 10:56:14;;;;;;;4.35;3.97;;;;;;;8.59;92.61;62879.28;5093524;28;20189;-76
2022/01/09 10:58:44;;;;;;;5.07;4.55;;;;;;;8.82;91.57;62910.13;5094101;28;20243;-76
2022/01/09 11:02:10;;;;;;;5.65;5.13;;;;;;;9.00;90.83;62921.66;5098587;28;20193;-76
2022/01/09 11:04:37;;;;;;;4.53;4.10;;;;;;;9.04;90.75;62928.31;5201575;22;20239;-75
2022/01/09 11:07:13;;;;;;;6.10;4.70;;;;;;;9.08;89.68;62939.53;5141442;27;20195;-75
2022/01/09 11:12:48;;;;;;;3.97;3.58;;;;;;;8.50;92.39;62872.00;5116293;28;20235;-75
2022/01/09 11:15:21;;;;;;;4.57;4.18;;;;;;;9.08;91.31;62934.47;5123707;28;20215;-75
2022/01/09 11:17:48;;;;;;;5.25;3.90;;;;;;;9.45;88.23;62969.66;5123836;28;20479;-74
2022/01/09 11:20:15;;;;;;;5.93;4.40;;;;;;;9.60;86.60;62985.69;5111333;28;20219;-76
2022/01/09 11:22:43;;;;;;;4.93;4.40;;;;;;;9.90;84.09;63018.75;5109665;27;20358;-75
2022/01/09 11:25:25;;;;;;;5.28;4.28;;;;;;;9.99;83.03;63028.56;5111050;28;20220;-75
2022/01/09 11:28:04;;;;;;;6.00;4.07;;;;;;;9.73;82.86;63003.72;5105479;28;20219;-76
2022/01/09 11:30:46;;;;;;;9.57;4.10;;;;;;;9.46;84.86;62973.75;5113741;28;20195;-75
2022/01/09 11:33:37;;;;;;;5.22;4.18;;;;;;;9.60;84.96;62985.69;5110179;28;20202;-74
2022/01/09 11:36:14;;;;;;;5.05;3.90;;;;;;;9.31;85.36;62958.78;5109752;28;20204;-75
2022/01/09 11:38:50;;;;;;;6.53;3.88;;;;;;;8.90;87.68;62913.84;5109468;28;20242;-74
2022/01/09 11:41:19;;;;;;;5.30;3.80;;;;;;;8.58;90.78;62885.84;5119093;28;20383;-74
2022/01/09 11:43:56;;;;;;;4.43;3.97;;;;;;;8.29;93.21;62853.38;5118068;28;20219;-75
2022/01/09 11:46:25;;;;;;;8.35;4.60;;;;;;;8.25;93.45;62848.72;5102816;28;20192;-75
2022/01/09 11:49:07;;;;;;;7.40;5.15;;;;;;;8.18;95.41;62842.50;5103722;28;20227;-75
2022/01/09 11:51:35;;;;;;;8.70;4.72;;;;;;;7.88;96.13;62809.00;5105039;28;20200;-75
2022/01/09 11:54:11;;;;;;;8.27;4.78;;;;;;;7.68;98.92;62790.88;5108325;28;20427;-76
2022/01/09 11:56:56;;;;;;;8.50;4.57;;;;;;;7.72;98.49;62795.00;5103619;28;20302;-75
2022/01/09 11:59:35;;;;;;;5.13;4.03;;;;;;;7.55;99.47;62774.91;5103464;28;20219;-75
2022/01/09 12:02:04;;;;;;;4.50;4.10;;;;;;;7.54;100.00;62773.38;5110972;28;20222;-77
2022/01/09 12:05:06;;;;;;;4.35;3.95;;;;;;;7.55;99.68;62779.47;5119313;28;20604;-76
2022/01/09 12:08:09;;;;;;;5.85;3.95;;;;;;;7.41;100.00;62760.47;5125091;28;20263;-76
2022/01/09 12:10:41;;;;;;;5.57;4.85;;;;;;;7.18;100.00;62739.25;5114460;28;20225;-76
2022/01/09 12:13:40;;;;;;;6.15;4.45;;;;;;;7.20;100.00;62738.78;5120439;28;20234;-76
2022/01/09 12:16:11;;;;;;;8.98;4.78;;;;;;;7.15;100.00;62731.09;5125327;28;20240;-76
2022/01/09 12:18:43;;;;;;;6.90;5.72;;;;;;;7.32;100.00;62750.66;5116927;28;20215;-76
2022/01/09 12:21:11;;;;;;;5.07;4.68;;;;;;;7.22;100.00;62745.41;5120946;28;20195;-77
2022/01/09 12:23:38;;;;;;;4.50;3.97;;;;;;;7.15;100.00;62735.66;5124276;28;20508;-77
2022/01/09 12:26:05;;;;;;;4.18;3.78;;;;;;;7.36;100.00;62757.31;5108768;28;20513;-75
2022/01/09 12:28:45;;;;;;;5.53;4.88;;;;;;;7.54;100.00;62778.94;5108402;28;20232;-76
2022/01/09 12:31:25;;;;;;;6.07;4.35;;;;;;;7.51;100.00;62773.31;5108710;28;20226;-75
2022/01/09 12:33:52;;;;;;;6.80;5.15;;;;;;;7.37;100.00;62756.34;5114782;28;20216;-76
2022/01/09 12:36:37;;;;;;;6.68;4.60;;;;;;;7.42;100.00;62761.00;5116982;28;20196;-75
2022/01/09 12:39:07;;;;;;;5.65;4.70;;;;;;;7.60;100.00;62780.09;5113539;28;20281;-76
2022/01/09 12:41:39;;;;;;;6.22;5.13;;;;;;;7.56;100.00;62773.41;5112573;28;20235;-76
2022/01/09 12:44:10;;;;;;;7.00;4.90;;;;;;;7.68;100.00;62790.88;5107257;28;20238;-76
2022/01/09 12:46:41;;;;;;;7.15;4.68;;;;;;;7.70;99.97;62789.88;5116727;28;20218;-75
2022/01/09 12:49:12;;;;;;;7.43;5.40;;;;;;;7.61;100.00;62786.19;5116604;28;20227;-76
2022/01/09 12:51:46;;;;;;;7.55;4.85;;;;;;;7.85;100.00;62803.34;5115121;28;20199;-76
2022/01/09 12:54:12;;;;;;;7.15;5.50;;;;;;;8.04;99.11;62830.06;5114470;28;20420;-75
2022/01/09 12:56:41;;;;;;;8.85;6.32;;;;;;;8.16;98.31;62840.44;5112939;28;20375;-76
2022/01/09 12:59:09;;;;;;;6.95;5.50;;;;;;;8.19;98.34;62843.53;5114217;28;20211;-75
2022/01/09 13:01:41;;;;;;;5.57;4.75;;;;;;;8.29;97.10;62853.38;5117388;28;20218;-76
2022/01/09 13:04:11;;;;;;;8.50;4.82;;;;;;;8.35;96.18;62861.59;5118992;28;20413;-76
2022/01/09 13:06:40;;;;;;;8.30;5.20;;;;;;;8.42;96.38;62864.25;5116270;28;20199;-75
2022/01/09 13:09:13;;;;;;;5.43;4.82;;;;;;;8.40;95.19;62864.72;5118635;28;20234;-77
2022/01/09 13:11:40;;;;;;;6.70;5.47;;;;;;;8.59;95.02;62881.81;5124141;28;20196;-76
2022/01/09 13:14:08;;;;;;;7.88;5.75;;;;;;;8.64;95.08;62889.53;5127094;28;20281;-76
2022/01/09 13:16:35;;;;;;;8.25;6.22;;;;;;;8.79;94.66;62902.47;5122701;28;20201;-76
2022/01/09 13:19:06;;;;;;;6.55;5.13;;;;;;;8.93;93.30;62916.44;5113922;28;20215;-75
2022/01/09 13:21:35;;;;;;;8.55;6.03;;;;;;;8.92;92.13;62917.94;5120126;28;20484;-75
2022/01/09 13:24:08;;;;;;;10.65;6.07;;;;;;;8.99;90.92;62922.66;5121894;28;20211;-76
2022/01/09 13:26:38;;;;;;;5.00;4.50;;;;;;;8.69;91.19;62889.63;5120106;28;20297;-75
2022/01/09 13:29:08;;;;;;;5.40;4.82;;;;;;;8.67;92.53;62897.69;5124685;28;20231;-76
2022/01/09 13:31:47;;;;;;;6.93;5.07;;;;;;;8.53;92.66;62875.63;5125189;28;20251;-75
2022/01/09 13:34:17;;;;;;;6.43;5.57;;;;;;;8.70;92.20;62898.25;5124900;28;20318;-76
2022/01/09 13:36:46;;;;;;;8.25;5.85;;;;;;;8.63;92.60;62885.94;5120795;28;20224;-75
2022/01/09 13:39:18;;;;;;;21.70;14.10;;;;;;;8.63;92.86;62885.94;5126119;28;20219;-76
2022/01/09 13:41:48;;;;;;;7.65;5.75;;;;;;;8.66;92.49;62889.03;5124827;28;20195;-75
2022/01/09 13:44:15;;;;;;;6.90;5.43;;;;;;;8.71;92.94;62891.16;5124267;28;20265;-75
2022/01/09 13:46:44;;;;;;;10.77;6.25;;;;;;;8.39;93.31;62863.69;5128305;28;20220;-74
2022/01/09 13:49:17;;;;;;;11.18;7.43;;;;;;;8.41;94.22;62862.69;5135495;28;20226;-75
2022/01/09 13:51:47;;;;;;;8.02;6.05;;;;;;;8.49;93.47;62871.47;5136601;28;20195;-74
2022/01/09 13:54:17;;;;;;;11.23;6.80;;;;;;;8.49;92.62;62874.00;5133235;28;20235;-75
2022/01/09 13:56:44;;;;;;;13.68;9.23;;;;;;;8.39;93.22;62863.69;5122780;28;20259;-74
2022/01/09 13:59:12;;;;;;;8.38;6.00;;;;;;;8.39;93.11;62861.16;5126425;27;20329;-76
2022/01/09 14:01:47;;;;;;;10.63;7.38;;;;;;;8.39;92.91;62858.13;5124010;28;20211;-74
2022/01/09 14:04:18;;;;;;;7.05;6.35;;;;;;;8.41;92.93;62868.28;5122398;28;20290;-75
2022/01/09 14:07:00;;;;;;;9.77;6.25;;;;;;;8.25;93.93;62846.19;5124342;28;20195;-74
2022/01/09 14:09:33;;;;;;;6.97;5.90;;;;;;;8.31;94.40;62855.44;5124735;28;20234;-75
2022/01/09 14:12:02;;;;;;;140.60;74.65;;;;;;;8.35;94.46;62859.03;5121947;28;20199;-74
2022/01/09 14:14:33;;;;;;;21.42;13.55;;;;;;;7.95;96.43;62820.78;5121068;28;20320;-75
2022/01/09 14:17:00;;;;;;;24.35;15.20;;;;;;;7.89;97.47;62812.03;5119628;27;20235;-75
2022/01/09 14:19:47;;;;;;;6.35;5.63;;;;;;;7.92;97.32;62813.09;5146723;27;20218;-76
2022/01/09 14:22:14;;;;;;;8.25;5.28;;;;;;;7.71;98.20;62793.47;5120531;27;20199;-75
2022/01/09 14:25:02;;;;;;;4.63;4.18;;;;;;;7.35;100.00;62753.75;5124575;28;20398;-76
2022/01/09 14:27:31;;;;;;;5.03;4.05;;;;;;;7.21;100.00;62739.31;5123434;28;20221;-75
2022/01/09 14:30:00;;;;;;;6.97;5.70;;;;;;;7.30;100.00;62748.59;5120666;28;20313;-75
2022/01/09 14:32:27;;;;;;;11.02;7.53;;;;;;;7.46;100.00;62765.09;5106109;28;20200;-76
2022/01/09 14:34:56;;;;;;;10.10;5.60;;;;;;;7.54;100.00;62771.34;5104693;28;20220;-75
2022/01/09 14:37:24;;;;;;;7.78;5.93;;;;;;;7.46;100.00;62768.16;5104706;28;20199;-76
2022/01/09 14:39:51;;;;;;;6.82;5.28;;;;;;;7.27;100.00;62750.56;5104649;28;20247;-77
2022/01/09 14:42:18;;;;;;;8.73;4.65;;;;;;;7.16;100.00;62734.16;5112429;28;20207;-76
2022/01/09 14:44:45;;;;;;;8.82;4.88;;;;;;;6.93;100.00;62710.94;5119606;28;20231;-76
2022/01/09 14:47:12;;;;;;;7.95;5.10;;;;;;;6.67;100.00;62687.19;5120467;28;20211;-75
2022/01/09 14:49:39;;;;;;;5.35;4.85;;;;;;;6.54;100.00;62668.69;5110144;28;20562;-75
2022/01/09 14:52:07;;;;;;;7.30;4.78;;;;;;;6.42;100.00;62660.88;5104903;28;20199;-76
2022/01/09 14:54:35;;;;;;;7.25;5.40;;;;;;;6.41;100.00;62654.78;5112699;28;20211;-76
2022/01/09 14:57:04;;;;;;;10.63;6.43;;;;;;;6.47;100.00;62661.47;5122505;28;20222;-75
2022/01/09 14:59:31;;;;;;;17.23;8.30;;;;;;;6.44;100.00;62658.41;5106314;28;20216;-75
2022/01/09 15:01:58;;;;;;;14.90;7.28;;;;;;;6.12;100.00;62630.47;5111341;28;20199;-76
2022/01/09 15:04:25;;;;;;;9.82;7.68;;;;;;;6.04;100.00;62616.66;5110397;28;20247;-76
2022/01/09 15:06:55;;;;;;;16.33;9.93;;;;;;;5.91;100.00;62605.78;5111883;28;20211;-75
2022/01/09 15:09:25;;;;;;;14.50;9.73;;;;;;;5.80;100.00;62597.97;5119023;28;20228;-75
2022/01/09 15:11:53;;;;;;;21.65;9.63;;;;;;;5.76;100.00;62595.88;5121100;28;20223;-75
2022/01/09 15:14:21;;;;;;;16.52;9.82;;;;;;;5.74;100.00;62591.28;5117069;28;20243;-76
2022/01/09 15:16:48;;;;;;;20.33;10.82;;;;;;;5.74;100.00;62589.28;5124686;28;20206;-75
2022/01/09 15:19:15;;;;;;;20.00;10.45;;;;;;;5.73;100.00;62588.22;5129516;27;20519;-76
2022/01/09 15:21:42;;;;;;;25.60;13.70;;;;;;;5.88;100.00;62608.25;5126818;28;20195;-76
2022/01/09 15:24:10;;;;;;;63.17;34.00;;;;;;;6.04;100.00;62617.16;5105817;28;20214;-76
2022/01/09 15:26:38;;;;;;;64.93;35.80;;;;;;;6.10;100.00;62625.34;5125057;27;20191;-76
2022/01/09 15:29:05;;;;;;;36.60;16.48;;;;;;;6.16;100.00;62632.06;5114290;28;20234;-76
2022/01/09 15:31:32;;;;;;;26.08;15.30;;;;;;;6.15;100.00;62633.56;5120876;28;20517;-75
2022/01/09 15:33:59;;;;;;;25.33;12.65;;;;;;;6.19;100.00;62637.16;5110681;28;20437;-76
2022/01/09 15:36:26;;;;;;;19.83;10.52;;;;;;;6.16;100.00;62634.06;5106820;28;20401;-77
2022/01/09 15:38:53;;;;;;;23.00;11.50;;;;;;;6.05;100.00;62620.19;5108221;28;20386;-77
2022/01/09 15:41:20;;;;;;;20.60;12.52;;;;;;;5.93;100.00;62610.38;5116151;28;20237;-75
2022/01/09 15:43:48;;;;;;;21.73;12.50;;;;;;;5.91;100.00;62605.78;5119550;28;20240;-77
2022/01/09 15:46:15;;;;;;;20.98;13.07;;;;;;;5.85;100.00;62605.66;5125761;28;20409;-76
2022/01/09 15:48:43;;;;;;;22.75;14.38;;;;;;;5.73;100.00;62590.25;5125818;28;20219;-76
2022/01/09 15:51:10;;;;;;;20.73;12.60;;;;;;;5.82;100.00;62594.47;5120497;28;20203;-77
2022/01/09 15:53:39;;;;;;;24.25;12.95;;;;;;;5.59;100.00;62573.81;5107618;28;20216;-77
2022/01/09 15:56:08;;;;;;;22.27;12.73;;;;;;;5.69;100.00;62583.59;5124482;28;20207;-76
2022/01/09 15:58:35;;;;;;;24.35;13.93;;;;;;;5.76;100.00;62591.31;5127929;28;20599;-76
2022/01/09 16:01:06;;;;;;;21.73;13.20;;;;;;;5.69;100.00;62588.66;5111971;28;20617;-76
2022/01/09 16:03:49;;;;;;;21.20;13.05;;;;;;;5.74;100.00;62588.75;5115830;28;20250;-77
2022/01/09 16:06:16;;;;;;;21.10;13.75;;;;;;;5.55;100.00;62569.19;5111656;28;20184;-76
2022/01/09 16:08:42;;;;;;;22.33;13.27;;;;;;;5.35;100.00;62546.06;5126267;28;20234;-77
2022/01/09 16:11:09;;;;;;;21.10;12.00;;;;;;;5.48;100.00;62561.97;5107879;28;20253;-76
2022/01/09 16:13:37;;;;;;;18.95;10.90;;;;;;;5.44;100.00;62558.34;5108619;28;20241;-78
2022/01/09 16:16:06;;;;;;;16.48;11.48;;;;;;;5.31;100.00;62542.44;5108070;28;20196;-76
2022/01/09 16:18:33;;;;;;;42.03;24.40;;;;;;;5.33;100.00;62547.03;5123385;28;20242;-76
2022/01/09 16:21:01;;;;;;;26.75;16.30;;;;;;;5.16;100.00;62532.03;5115776;28;20200;-76
2022/01/09 16:23:27;;;;;;;28.60;15.55;;;;;;;5.00;100.00;62513.06;5108059;28;20219;-76
2022/01/09 16:25:58;;;;;;;28.30;16.05;;;;;;;5.07;100.00;62520.25;5122301;28;20199;-77
2022/01/09 16:28:25;;;;;;;28.25;16.83;;;;;;;5.18;100.00;62531.56;5115043;28;20242;-77
2022/01/09 16:30:53;;;;;;;33.22;18.30;;;;;;;5.21;100.00;62536.69;5114802;28;20219;-77
2022/01/09 16:33:29;;;;;;;32.00;16.20;;;;;;;5.12;100.00;62524.88;5115471;28;20220;-77
2022/01/09 16:35:56;;;;;;;23.83;14.85;;;;;;;5.14;100.00;62524.44;5115578;28;20172;-76
2022/01/09 16:38:23;;;;;;;23.25;13.05;;;;;;;5.14;100.00;62526.94;5122050;28;20215;-78
2022/01/09 16:40:50;;;;;;;22.05;12.35;;;;;;;5.20;100.00;62536.16;5125248;28;20274;-76
2022/01/09 16:43:17;;;;;;;15.30;10.07;;;;;;;5.16;100.00;62534.06;5126070;28;20200;-76
2022/01/09 16:45:44;;;;;;;15.18;9.77;;;;;;;5.04;100.00;62516.66;5122888;28;20192;-77